createdAt,value
2018-08-19T00:02:29.110Z,18.25
2018-08-19T00:05:19.762Z,18.23
2018-08-19T00:07:56.323Z,18.24
2018-08-19T00:10:51.116Z,18.22
2018-08-19T00:13:27.585Z,18.23
2018-08-19T00:16:05.592Z,18.16
2018-08-19T00:18:43.977Z,18.18
2018-08-19T00:21:26.366Z,18.17
2018-08-19T00:24:03.889Z,18.13
2018-08-19T00:26:41.860Z,18.06
2018-08-19T00:29:28.611Z,18.01
2018-08-19T00:32:05.685Z,17.97
2018-08-19T00:34:43.791Z,17.98
2018-08-19T00:37:22.210Z,17.91
2018-08-19T00:40:05.202Z,17.96
2018-08-19T00:42:45.637Z,17.95
2018-08-19T00:45:23.969Z,17.90
2018-08-19T00:48:05.313Z,17.88
2018-08-19T00:50:45.763Z,17.88
2018-08-19T00:53:22.515Z,17.87
2018-08-19T00:56:00.216Z,17.87
2018-08-19T00:58:37.437Z,17.84
2018-08-19T01:01:30.967Z,17.83
2018-08-19T01:04:11.518Z,17.78
2018-08-19T01:06:56.089Z,17.73
2018-08-19T01:09:39.195Z,17.71
2018-08-19T01:12:17.821Z,17.71
2018-08-19T01:14:58.032Z,17.66
2018-08-19T01:17:44.337Z,17.66
2018-08-19T01:20:23.326Z,17.62
2018-08-19T01:23:08.659Z,17.62
2018-08-19T01:25:51.299Z,17.58
2018-08-19T01:28:30.421Z,17.56
2018-08-19T01:31:10.807Z,17.55
2018-08-19T01:33:50.069Z,17.57
2018-08-19T01:36:36.004Z,17.62
2018-08-19T01:39:17.707Z,17.56
2018-08-19T01:41:56.912Z,17.58
2018-08-19T01:44:46.065Z,17.58
2018-08-19T01:47:27.554Z,17.58
2018-08-19T01:50:20.551Z,17.58
2018-08-19T01:53:18.469Z,17.56
2018-08-19T01:55:54.425Z,17.56
2018-08-19T01:58:32.439Z,17.55
2018-08-19T02:01:08.552Z,17.47
2018-08-19T02:03:44.878Z,17.52
2018-08-19T02:06:20.987Z,17.50
2018-08-19T02:08:56.991Z,17.53
2018-08-19T02:11:33.017Z,17.54
2018-08-19T02:14:08.926Z,17.58
2018-08-19T02:16:45.150Z,17.55
2018-08-19T02:19:21.302Z,17.58
2018-08-19T02:21:57.356Z,17.57
2018-08-19T02:24:33.250Z,17.61
2018-08-19T02:27:09.370Z,17.58
2018-08-19T02:29:45.158Z,17.62
2018-08-19T02:32:21.187Z,17.60
2018-08-19T02:34:57.025Z,17.69
2018-08-19T02:37:32.949Z,17.70
2018-08-19T02:40:11.977Z,17.60
2018-08-19T02:42:47.933Z,17.62
2018-08-19T02:45:23.996Z,17.60
2018-08-19T02:48:00.208Z,17.53
2018-08-19T02:50:36.258Z,17.45
2018-08-19T02:53:12.303Z,17.39
2018-08-19T02:55:48.309Z,17.43
2018-08-19T02:58:24.498Z,17.48
2018-08-19T03:01:00.650Z,17.44
2018-08-19T03:03:36.782Z,17.48
2018-08-19T03:06:12.862Z,17.57
2018-08-19T03:08:53.886Z,17.45
2018-08-19T03:11:30.020Z,17.46
2018-08-19T03:14:07.092Z,17.39
2018-08-19T03:16:43.100Z,17.46
2018-08-19T03:19:19.256Z,17.39
2018-08-19T03:21:59.258Z,17.37
2018-08-19T03:24:35.170Z,17.32
2018-08-19T03:27:10.999Z,17.33
2018-08-19T03:29:52.136Z,17.37
2018-08-19T03:32:28.327Z,17.38
2018-08-19T03:35:19.493Z,17.42
2018-08-19T03:37:56.056Z,17.42
2018-08-19T03:40:32.073Z,17.44
2018-08-19T03:43:08.263Z,17.38
2018-08-19T03:45:44.304Z,17.33
2018-08-19T03:48:20.220Z,17.38
2018-08-19T03:50:56.114Z,17.40
2018-08-19T03:53:32.132Z,17.45
2018-08-19T03:56:11.560Z,17.41
2018-08-19T03:58:48.315Z,17.43
2018-08-19T04:01:44.271Z,17.45
2018-08-19T04:04:19.959Z,17.47
2018-08-19T04:06:56.116Z,17.46
2018-08-19T04:09:32.199Z,17.46
2018-08-19T04:12:16.575Z,17.62
2018-08-19T04:14:52.580Z,17.51
2018-08-19T04:17:28.639Z,17.53
2018-08-19T04:20:05.468Z,17.41
2018-08-19T04:22:41.672Z,17.42
2018-08-19T04:25:21.693Z,17.43
2018-08-19T04:27:57.688Z,17.47
2018-08-19T04:30:33.758Z,17.29
2018-08-19T04:33:09.997Z,17.28
2018-08-19T04:35:46.093Z,17.20
2018-08-19T04:38:23.407Z,17.32
2018-08-19T04:41:01.448Z,17.29
2018-08-19T04:43:37.506Z,17.30
2018-08-19T04:46:13.459Z,17.26
2018-08-19T04:48:49.567Z,17.19
2018-08-19T04:51:27.108Z,17.19
2018-08-19T04:54:05.619Z,17.24
2018-08-19T04:56:41.643Z,17.21
2018-08-19T04:59:17.791Z,17.11
2018-08-19T05:01:53.885Z,17.10
2018-08-19T05:04:30.091Z,17.13
2018-08-19T05:07:06.251Z,17.35
2018-08-19T05:09:42.417Z,17.24
2018-08-19T05:12:18.456Z,17.28
2018-08-19T05:14:54.675Z,17.27
2018-08-19T05:17:30.894Z,17.31
2018-08-19T05:20:15.908Z,17.37
2018-08-19T05:22:52.005Z,17.33
2018-08-19T05:25:28.158Z,17.32
2018-08-19T05:28:07.698Z,17.37
2018-08-19T05:30:43.849Z,17.43
2018-08-19T05:33:20.025Z,17.49
2018-08-19T05:35:56.285Z,17.58
2018-08-19T05:38:33.644Z,17.61
2018-08-19T05:41:11.561Z,17.75
2018-08-19T05:43:47.612Z,17.75
2018-08-19T05:46:23.559Z,17.81
2018-08-19T05:49:04.104Z,17.88
2018-08-19T05:51:40.178Z,17.95
2018-08-19T05:54:16.317Z,17.94
2018-08-19T05:56:56.225Z,18.04
2018-08-19T05:59:32.288Z,18.07
2018-08-19T06:02:08.521Z,18.05
2018-08-19T06:04:45.017Z,18.23
2018-08-19T06:07:21.083Z,18.15
2018-08-19T06:09:57.291Z,18.22
2018-08-19T06:12:33.437Z,18.35
2018-08-19T06:15:09.645Z,18.35
2018-08-19T06:20:30.780Z,18.53
2018-08-19T06:23:07.135Z,18.55
2018-08-19T06:25:43.286Z,18.58
2018-08-19T06:28:19.249Z,18.53
2018-08-19T06:30:55.088Z,18.54
2018-08-19T06:33:31.398Z,18.48
2018-08-19T06:36:08.347Z,18.57
2018-08-19T06:38:39.843Z,18.65
2018-08-19T06:41:10.517Z,18.76
2018-08-19T06:43:41.384Z,18.72
2018-08-19T06:46:12.199Z,18.82
2018-08-19T06:48:43.341Z,19.06
2018-08-19T06:51:15.063Z,19.01
2018-08-19T06:53:45.964Z,19.18
2018-08-19T06:56:16.702Z,19.17
2018-08-19T06:58:47.482Z,19.18
2018-08-19T07:01:18.431Z,19.25
2018-08-19T07:03:53.183Z,19.31
2018-08-19T07:06:23.937Z,19.48
2018-08-19T07:08:54.689Z,19.47
2018-08-19T07:11:25.425Z,19.56
2018-08-19T07:13:56.185Z,19.57
2018-08-19T07:16:27.690Z,19.82
2018-08-19T07:18:58.459Z,19.85
2018-08-19T07:21:29.242Z,19.97
2018-08-19T07:23:59.905Z,19.98
2018-08-19T07:26:30.556Z,20.21
2018-08-19T07:29:01.944Z,20.44
2018-08-19T07:31:34.112Z,20.65
2018-08-19T07:34:18.988Z,20.87
2018-08-19T07:36:51.299Z,20.91
2018-08-19T07:39:23.410Z,20.72
2018-08-19T07:41:54.446Z,20.89
2018-08-19T07:44:28.889Z,20.83
2018-08-19T07:47:00.622Z,20.97
2018-08-19T07:49:32.666Z,20.94
2018-08-19T07:52:03.981Z,21.26
2018-08-19T07:54:34.806Z,21.49
2018-08-19T07:57:13.781Z,21.63
2018-08-19T07:59:47.122Z,21.72
2018-08-19T08:02:18.093Z,21.95
2018-08-19T08:04:48.866Z,22.12
2018-08-19T08:07:19.881Z,22.45
2018-08-19T08:09:50.763Z,22.79
2018-08-19T08:12:21.464Z,22.94
2018-08-19T08:14:53.362Z,23.25
2018-08-19T08:17:25.725Z,23.17
2018-08-19T08:20:03.685Z,23.32
2018-08-19T08:22:35.001Z,23.12
2018-08-19T08:25:11.020Z,23.44
2018-08-19T08:27:41.839Z,23.67
2018-08-19T08:30:17.477Z,23.74
2018-08-19T08:32:49.880Z,23.97
2018-08-19T08:35:20.704Z,23.97
2018-08-19T08:37:51.437Z,24.04
2018-08-19T08:40:22.159Z,23.50
2018-08-19T08:42:52.939Z,23.47
2018-08-19T08:45:28.603Z,23.24
2018-08-19T08:47:59.541Z,23.24
2018-08-19T08:50:30.269Z,23.22
2018-08-19T08:53:01.196Z,23.15
2018-08-19T08:55:33.440Z,23.35
2018-08-19T08:58:04.332Z,23.01
2018-08-19T09:00:35.357Z,22.78
2018-08-19T09:03:06.239Z,23.03
2018-08-19T09:05:37.792Z,23.14
2018-08-19T09:08:08.629Z,23.20
2018-08-19T09:10:40.585Z,23.82
2018-08-19T09:13:11.509Z,23.74
2018-08-19T09:15:42.528Z,23.58
2018-08-19T09:18:13.500Z,23.65
2018-08-19T09:20:44.517Z,23.74
2018-08-19T09:23:15.469Z,23.48
2018-08-19T09:25:46.427Z,23.69
2018-08-19T09:28:17.101Z,23.91
2018-08-19T09:30:48.049Z,24.42
2018-08-19T09:33:19.868Z,24.11
2018-08-19T09:35:52.909Z,24.51
2018-08-19T09:38:24.461Z,24.07
2018-08-19T09:40:55.284Z,24.47
2018-08-19T09:43:26.251Z,25.02
2018-08-19T09:45:57.084Z,25.54
2018-08-19T09:48:27.847Z,25.76
2018-08-19T09:51:03.508Z,26.06
2018-08-19T09:53:36.554Z,26.39
2018-08-19T09:56:09.410Z,26.31
2018-08-19T09:58:41.178Z,25.53
2018-08-19T10:01:14.941Z,25.45
2018-08-19T10:03:45.750Z,25.33
2018-08-19T10:06:16.464Z,25.44
2018-08-19T10:08:47.339Z,25.38
2018-08-19T10:11:18.065Z,25.01
2018-08-19T10:13:53.106Z,24.89
2018-08-19T10:16:38.502Z,24.84
2018-08-19T10:19:09.244Z,25.21
2018-08-19T10:21:40.138Z,25.50
2018-08-19T10:24:29.991Z,25.50
2018-08-19T10:27:01.293Z,25.41
2018-08-19T10:29:32.076Z,25.48
2018-08-19T10:32:03.678Z,25.86
2018-08-19T10:34:36.840Z,25.84
2018-08-19T10:37:07.525Z,26.12
2018-08-19T10:39:38.374Z,26.46
2018-08-19T10:42:23.916Z,26.76
2018-08-19T10:44:54.682Z,26.97
2018-08-19T10:47:25.484Z,27.13
2018-08-19T10:50:13.541Z,27.09
2018-08-19T10:52:44.396Z,27.51
2018-08-19T10:55:15.790Z,26.85
2018-08-19T10:57:46.580Z,26.92
2018-08-19T11:00:21.937Z,27.03
2018-08-19T11:02:52.729Z,27.06
2018-08-19T11:05:23.594Z,27.51
2018-08-19T11:07:54.320Z,27.78
2018-08-19T11:10:27.182Z,28.18
2018-08-19T11:12:59.363Z,28.32
2018-08-19T11:15:49.677Z,28.68
2018-08-19T11:18:34.621Z,27.98
2018-08-19T11:21:10.917Z,27.81
2018-08-19T11:23:44.061Z,27.83
2018-08-19T11:26:14.855Z,27.85
2018-08-19T11:28:51.471Z,27.86
2018-08-19T11:31:27.893Z,27.79
2018-08-19T11:34:01.198Z,27.63
2018-08-19T11:36:38.086Z,27.61
2018-08-19T11:39:12.330Z,27.46
2018-08-19T11:41:43.244Z,26.69
2018-08-19T11:44:16.425Z,26.77
2018-08-19T11:46:47.265Z,26.94
2018-08-19T11:49:19.357Z,27.37
2018-08-19T11:52:03.480Z,27.75
2018-08-19T11:54:34.959Z,27.74
2018-08-19T11:57:13.006Z,27.91
2018-08-19T11:59:45.038Z,27.81
2018-08-19T12:02:22.407Z,27.33
2018-08-19T12:04:53.249Z,27.33
2018-08-19T12:07:24.001Z,27.71
2018-08-19T12:10:01.381Z,27.20
2018-08-19T12:12:49.036Z,27.03
2018-08-19T12:15:19.843Z,27.47
2018-08-19T12:17:50.585Z,27.52
2018-08-19T12:20:26.137Z,27.27
2018-08-19T12:22:56.923Z,27.38
2018-08-19T12:25:27.648Z,27.75
2018-08-19T12:27:58.501Z,28.22
2018-08-19T12:30:32.920Z,28.10
2018-08-19T12:33:18.131Z,28.40
2018-08-19T12:35:48.942Z,28.60
2018-08-19T12:38:19.695Z,28.06
2018-08-19T12:40:50.551Z,28.19
2018-08-19T12:43:21.295Z,28.26
2018-08-19T12:45:53.221Z,28.56
2018-08-19T12:48:23.967Z,28.66
2018-08-19T12:51:00.058Z,28.60
2018-08-19T12:53:30.815Z,28.59
2018-08-19T12:56:02.024Z,28.95
2018-08-19T12:58:32.749Z,29.32
2018-08-19T13:01:03.452Z,29.43
2018-08-19T13:03:34.189Z,29.47
2018-08-19T13:06:07.349Z,29.52
2018-08-19T13:08:38.031Z,29.62
2018-08-19T13:11:09.144Z,29.36
2018-08-19T13:13:39.813Z,29.13
2018-08-19T13:16:10.572Z,29.30
2018-08-19T13:19:12.251Z,29.37
2018-08-19T13:21:42.926Z,28.51
2018-08-19T13:24:13.973Z,28.12
2018-08-19T13:26:44.609Z,27.88
2018-08-19T13:29:15.293Z,27.52
2018-08-19T13:31:45.921Z,27.51
2018-08-19T13:34:16.616Z,28.04
2018-08-19T13:36:47.279Z,28.50
2018-08-19T13:39:18.020Z,28.68
2018-08-19T13:41:48.737Z,28.88
2018-08-19T13:44:19.496Z,28.71
2018-08-19T13:46:50.239Z,28.97
2018-08-19T13:49:27.328Z,28.38
2018-08-19T13:52:02.460Z,28.35
2018-08-19T13:54:33.092Z,28.26
2018-08-19T13:57:03.976Z,28.04
2018-08-19T13:59:34.678Z,28.27
2018-08-19T14:02:05.554Z,28.21
2018-08-19T14:04:36.324Z,28.18
2018-08-19T14:07:07.107Z,28.38
2018-08-19T14:09:37.828Z,28.18
2018-08-19T14:12:08.726Z,27.91
2018-08-19T14:14:39.408Z,27.90
2018-08-19T14:17:10.199Z,27.93
2018-08-19T14:19:41.290Z,27.75
2018-08-19T14:22:12.004Z,27.95
2018-08-19T14:24:42.631Z,28.13
2018-08-19T14:27:13.337Z,28.23
2018-08-19T14:29:44.015Z,28.06
2018-08-19T14:32:47.811Z,27.45
2018-08-19T14:35:18.480Z,27.22
2018-08-19T14:37:49.190Z,27.67
2018-08-19T14:40:20.063Z,27.69
2018-08-19T14:42:50.618Z,27.72
2018-08-19T14:45:21.427Z,27.89
2018-08-19T14:47:52.250Z,28.11
2018-08-19T14:50:22.951Z,28.12
2018-08-19T14:52:53.724Z,28.10
2018-08-19T14:55:24.435Z,28.08
2018-08-19T14:57:55.262Z,28.04
2018-08-19T15:00:25.944Z,27.82
2018-08-19T15:02:56.655Z,27.89
2018-08-19T15:05:27.384Z,28.03
2018-08-19T15:08:06.947Z,28.13
2018-08-19T15:10:37.542Z,28.46
2018-08-19T15:13:08.388Z,28.54
2018-08-19T15:15:39.022Z,28.81
2018-08-19T15:18:09.927Z,28.90
2018-08-19T15:20:40.597Z,28.76
2018-08-19T15:23:19.467Z,28.82
2018-08-19T15:25:50.173Z,28.70
2018-08-19T15:28:20.852Z,28.53
2018-08-19T15:30:51.463Z,28.45
2018-08-19T15:33:22.977Z,28.45
2018-08-19T15:35:53.627Z,28.55
2018-08-19T15:38:24.311Z,28.61
2018-08-19T15:40:54.968Z,28.30
2018-08-19T15:43:25.895Z,28.28
2018-08-19T15:45:56.541Z,28.26
2018-08-19T15:48:27.215Z,28.23
2018-08-19T15:51:03.213Z,28.23
2018-08-19T15:53:33.949Z,28.33
2018-08-19T15:56:04.656Z,28.42
2018-08-19T15:58:35.372Z,28.20
2018-08-19T16:01:30.882Z,28.20
2018-08-19T16:04:06.877Z,27.96
2018-08-19T16:06:37.595Z,27.79
2018-08-19T16:09:12.768Z,27.83
2018-08-19T16:11:43.862Z,27.84
2018-08-19T16:14:21.079Z,27.69
2018-08-19T16:16:52.527Z,27.83
2018-08-19T16:19:23.536Z,27.59
2018-08-19T16:21:55.643Z,27.63
2018-08-19T16:24:26.680Z,27.64
2018-08-19T16:26:58.030Z,27.61
2018-08-19T16:29:28.713Z,27.41
2018-08-19T16:31:59.413Z,27.33
2018-08-19T16:34:30.110Z,27.20
2018-08-19T16:37:00.795Z,27.08
2018-08-19T16:39:31.521Z,26.95
2018-08-19T16:42:02.320Z,26.95
2018-08-19T16:44:32.964Z,26.85
2018-08-19T16:47:03.739Z,26.60
2018-08-19T16:49:34.408Z,26.51
2018-08-19T16:52:05.604Z,26.43
2018-08-19T16:54:36.265Z,26.50
2018-08-19T16:57:07.218Z,26.37
2018-08-19T16:59:37.870Z,26.30
2018-08-19T17:02:08.577Z,26.13
2018-08-19T17:04:39.553Z,26.17
2018-08-19T17:07:11.936Z,26.12
2018-08-19T17:09:42.679Z,26.12
2018-08-19T17:12:13.338Z,26.07
2018-08-19T17:14:44.011Z,26.07
2018-08-19T17:17:14.676Z,25.96
2018-08-19T17:19:45.357Z,25.90
2018-08-19T17:22:16.075Z,25.82
2018-08-19T17:24:46.720Z,25.78
2018-08-19T17:27:17.427Z,25.74
2018-08-19T17:29:48.118Z,25.75
2018-08-19T17:32:18.805Z,25.72
2018-08-19T17:34:49.451Z,25.67
2018-08-19T17:37:20.583Z,25.55
2018-08-19T17:39:51.310Z,25.55
2018-08-19T17:42:21.991Z,25.47
2018-08-19T17:44:52.718Z,25.34
2018-08-19T17:47:23.392Z,25.28
2018-08-19T17:49:54.122Z,25.26
2018-08-19T17:52:24.875Z,25.25
2018-08-19T17:54:55.532Z,25.17
2018-08-19T17:57:26.283Z,25.20
2018-08-19T17:59:57.090Z,25.12
2018-08-19T18:02:27.780Z,25.08
2018-08-19T18:04:59.275Z,24.98
2018-08-19T18:07:29.933Z,24.94
2018-08-19T18:10:02.251Z,24.86
2018-08-19T18:12:33.000Z,24.80
2018-08-19T18:15:04.215Z,24.72
2018-08-19T18:17:34.880Z,24.77
2018-08-19T18:20:33.667Z,24.65
2018-08-19T18:23:06.438Z,24.59
2018-08-19T18:25:37.157Z,24.52
2018-08-19T18:28:16.012Z,24.49
2018-08-19T18:30:53.119Z,24.38
2018-08-19T18:33:23.813Z,24.36
2018-08-19T18:35:54.588Z,24.29
2018-08-19T18:38:30.787Z,24.27
2018-08-19T18:41:01.599Z,24.21
2018-08-19T18:43:32.261Z,24.16
2018-08-19T18:46:03.154Z,24.10
2018-08-19T18:48:33.890Z,24.08
2018-08-19T18:51:04.676Z,24.03
2018-08-19T18:53:38.460Z,23.98
2018-08-19T18:56:14.502Z,23.91
2018-08-19T18:58:45.239Z,23.87
2018-08-19T19:01:15.943Z,23.79
2018-08-19T19:03:46.675Z,23.76
2018-08-19T19:06:18.588Z,23.72
2018-08-19T19:08:49.924Z,23.66
2018-08-19T19:11:24.478Z,23.63
2018-08-19T19:13:55.500Z,23.59
2018-08-19T19:16:31.511Z,23.58
2018-08-19T19:19:02.649Z,23.52
2018-08-19T19:21:34.109Z,23.50
2018-08-19T19:24:05.342Z,23.42
2018-08-19T19:26:42.785Z,23.39
2018-08-19T19:29:18.843Z,23.36
2018-08-19T19:31:49.843Z,23.34
2018-08-19T19:34:20.877Z,23.33
2018-08-19T19:36:51.876Z,23.28
2018-08-19T19:39:22.868Z,23.25
2018-08-19T19:42:02.910Z,23.22
2018-08-19T19:44:36.724Z,23.18
2018-08-19T19:47:09.773Z,23.14
2018-08-19T19:49:47.096Z,23.09
2018-08-19T19:52:17.721Z,23.04
2018-08-19T19:54:48.570Z,23.04
2018-08-19T19:57:19.604Z,22.99
2018-08-19T19:59:50.478Z,22.95
2018-08-19T20:02:28.250Z,22.89
2018-08-19T20:04:59.204Z,22.86
2018-08-19T20:07:30.076Z,22.82
2018-08-19T20:10:01.065Z,22.81
2018-08-19T20:12:32.021Z,22.80
2018-08-19T20:15:03.102Z,22.78
2018-08-19T20:17:33.938Z,22.77
2018-08-19T20:20:04.929Z,22.74
2018-08-19T20:22:35.796Z,22.70
2018-08-19T20:25:07.448Z,22.69
2018-08-19T20:27:38.333Z,22.69
2018-08-19T20:30:09.334Z,22.62
2018-08-19T20:32:40.120Z,22.60
2018-08-19T20:35:11.035Z,22.58
2018-08-19T20:37:42.124Z,22.55
2018-08-19T20:40:12.944Z,22.55
2018-08-19T20:42:43.882Z,22.52
2018-08-19T20:45:14.729Z,22.47
2018-08-19T20:47:45.603Z,22.47
2018-08-19T20:50:17.454Z,22.44
2018-08-19T20:52:49.110Z,22.39
2018-08-19T20:55:19.945Z,22.34
2018-08-19T20:57:50.707Z,22.27
2018-08-19T21:00:21.489Z,22.26
2018-08-19T21:02:52.392Z,22.30
2018-08-19T21:05:23.171Z,22.16
2018-08-19T21:08:06.389Z,22.16
2018-08-19T21:10:38.111Z,22.12
2018-08-19T21:13:10.061Z,22.06
2018-08-19T21:15:49.766Z,22.07
2018-08-19T21:18:21.282Z,22.04
2018-08-19T21:20:52.938Z,22.05
2018-08-19T21:23:23.697Z,22.01
2018-08-19T21:25:59.661Z,21.98
2018-08-19T21:28:30.418Z,21.96
2018-08-19T21:31:01.109Z,21.96
2018-08-19T21:33:32.184Z,21.98
2018-08-19T21:36:03.024Z,21.94
2018-08-19T21:38:33.806Z,21.91
2018-08-19T21:41:04.669Z,21.91
2018-08-19T21:43:35.456Z,21.92
2018-08-19T21:46:06.397Z,21.93
2018-08-19T21:48:39.049Z,21.94
2018-08-19T21:51:10.031Z,21.96
2018-08-19T21:53:40.856Z,21.99
2018-08-19T21:56:11.659Z,22.00
2018-08-19T21:58:42.451Z,22.04
2018-08-19T22:01:18.350Z,22.05
2018-08-19T22:03:49.125Z,22.05
2018-08-19T22:06:19.934Z,22.08
2018-08-19T22:08:50.667Z,22.04
2018-08-19T22:11:21.565Z,22.02
2018-08-19T22:13:52.325Z,22.04
2018-08-19T22:16:23.292Z,22.01
2018-08-19T22:18:54.064Z,22.01
2018-08-19T22:21:24.958Z,21.97
2018-08-19T22:23:56.994Z,21.98
2018-08-19T22:26:27.736Z,21.94
2018-08-19T22:29:14.199Z,21.91
2018-08-19T22:31:45.077Z,21.94
2018-08-19T22:34:15.826Z,21.91
2018-08-19T22:36:46.696Z,21.89
2018-08-19T22:39:20.271Z,21.85
2018-08-19T22:41:52.490Z,22.07
2018-08-19T22:44:23.205Z,21.90
2018-08-19T22:46:53.990Z,21.82
2018-08-19T22:49:27.717Z,21.83
2018-08-19T22:52:17.548Z,21.81
2018-08-19T22:54:48.781Z,21.89
2018-08-19T22:57:19.721Z,21.85
2018-08-19T22:59:50.486Z,21.87
2018-08-19T23:02:21.372Z,21.89
2018-08-19T23:04:52.117Z,21.94
2018-08-19T23:07:22.840Z,21.87
2018-08-19T23:09:53.609Z,21.90
2018-08-19T23:12:24.373Z,21.85
2018-08-19T23:15:11.897Z,21.86
2018-08-19T23:17:42.676Z,21.82
2018-08-19T23:20:13.506Z,21.84
2018-08-19T23:22:44.259Z,21.85
2018-08-19T23:25:15.075Z,21.82
2018-08-19T23:27:45.815Z,21.84
2018-08-19T23:30:16.596Z,21.83
2018-08-19T23:32:47.376Z,22.00
2018-08-19T23:35:18.115Z,21.95
2018-08-19T23:37:48.839Z,21.89
2018-08-19T23:40:19.826Z,21.84
2018-08-19T23:42:50.566Z,21.81
2018-08-19T23:45:21.341Z,21.83
2018-08-19T23:47:52.075Z,21.76
2018-08-19T23:50:22.818Z,21.74
2018-08-19T23:52:53.499Z,21.69
2018-08-19T23:55:24.512Z,21.69
2018-08-19T23:57:55.276Z,21.69
